Terminal Aerodrome Forecast
Issued by NWS Pocatello, ID

Home | Current Version | Previous Version | Text Only | Print | Product List | Glossary On
Versions: 1 2 3 4 5 6 7 8 9 10 11 12 13
000
FTUS45 KPIH 272300
TAFIDA
TAF
KIDA 272332Z 2800/2824 VRB06KT P6SM SCT250
     FM281200 VRB06KT P6SM BKN200
     FM282100 35008KT P6SM FEW120 BKN200=

USA.gov is the U.S. government's official web portal to all federal, state and local government web resources and services.